Bruceton Mills, West Virginia
Current Conditions -  °F | °C
As of 4:53 AM on Saturday 22 Nov 2014 (Local Time) from KMGW Reporting Station
Clear Clear  
Wind Chill: 16°   Ceiling: Unl
Heat Index: 16°   Visibility: 10mi
Dew Point:   Wind: 3mph
Humidity: 74%   Direction: 180°S
Pressure: 30.38"   Gusts: NA
Location:  39.66°N, 79.64°W
Report Text: KMGW 220953Z AUTO 18003KT 10SM CLR M09/M13 A3038 RMK AO2 SLP306 T10891128 TSNO
Loading
Personal Weather Stations






























Interactive Weather Map New forecast layout! Learn more

10-Day Weather Forecast

Advertisements
Track Severe Weather on mobile